Ultra Vanscoy — 3FJD4 — position and weather

sailwx.info

Track history (hours):
 
Tides and Currents Weather Stations Pressure Air Temp Water Temp Dewpoint Dewpoint Depression Visibility Wind Speed Wind Dir Waves Ship Positions

Ultra Vanscoy

Last reported at 2018-May-07 07:59 UTC. Time now 2018-Jun-24 05:02 UTC.
Position N 35°01' E 129°03'.
Warning: this ship's position is 47 days out of date.

Length 180 m; draft 8.5 m.

Type: Cargo ship. MMSI: 371410000.

Date/timePositionNaut miles runAvg speedWind from/ knotsBaromVisibWave heightAir tempDewpointWater temp
2018-May-07 07:59N 35°01' E 129°03'1 0.2
2018-May-07 04:49N 35°02' E 129°03'0 0.1
2018-May-07 04:16N 35°02' E 129°03'0 0.2
2018-May-07 03:59N 35°02' E 129°03'1 2.4
2018-May-07 03:25N 35°01' E 129°05'4 8.8
2018-May-07 03:00N 35°03' E 129°09'64514.0
2018-May-05 04:50N 41°20' E 140°15'3 9.2
2018-May-05 04:30N 41°21' E 140°19'510.5
2018-May-05 03:59N 41°24' E 140°25'510.5
2018-May-05 03:29N 41°27' E 140°30'510.5
2018-May-05 03:00N 41°30' E 140°36'611.2
2018-May-05 02:30N 41°34' E 140°42'611.9
2018-May-05 02:00N 41°37' E 140°48'510.6
2018-May-05 01:31N 41°39' E 140°55'510.8
2018-May-05 01:00N 41°39' E 141°02'612.4
2018-May-05 00:30N 41°39' E 141°10'813.7
2018-May-04 23:57N 41°39' E 141°21'  
Track history (hours):
 
Tides and Currents Weather Stations Pressure Air Temp Water Temp Dewpoint Dewpoint Depression Visibility Wind Speed Wind Dir Waves Ship Positions

Ultra Vanscoy

Last reported at 2018-May-07 07:59 UTC. Time now 2018-Jun-24 05:02 UTC.
Position N 35°01' E 129°03'.
Warning: this ship's position is 47 days out of date.

Length 180 m; draft 8.5 m.

Type: Cargo ship. MMSI: 371410000.

Date/timePositionNaut miles runAvg speedWind from/ knotsBaromVisibWave heightAir tempDewpointWater temp
2018-May-07 07:59N 35°01' E 129°03'1 0.2
2018-May-07 04:49N 35°02' E 129°03'0 0.1
2018-May-07 04:16N 35°02' E 129°03'0 0.2
2018-May-07 03:59N 35°02' E 129°03'1 2.4
2018-May-07 03:25N 35°01' E 129°05'4 8.8
2018-May-07 03:00N 35°03' E 129°09'64514.0
2018-May-05 04:50N 41°20' E 140°15'3 9.2
2018-May-05 04:30N 41°21' E 140°19'510.5
2018-May-05 03:59N 41°24' E 140°25'510.5
2018-May-05 03:29N 41°27' E 140°30'510.5
2018-May-05 03:00N 41°30' E 140°36'611.2
2018-May-05 02:30N 41°34' E 140°42'611.9
2018-May-05 02:00N 41°37' E 140°48'510.6
2018-May-05 01:31N 41°39' E 140°55'510.8
2018-May-05 01:00N 41°39' E 141°02'612.4
2018-May-05 00:30N 41°39' E 141°10'813.7
2018-May-04 23:57N 41°39' E 141°21'  

Dump ship's entire track history